createdAt,value
2023-05-18T00:00:45.535Z,102526.47
2023-05-18T00:03:33.802Z,102540.16
2023-05-18T00:06:18.973Z,102532.56
2023-05-18T00:09:04.142Z,102517.41
2023-05-18T00:11:49.221Z,102529.31
2023-05-18T00:14:34.262Z,102533.75
2023-05-18T00:17:20.284Z,102517.50
2023-05-18T00:20:05.806Z,102537.28
2023-05-18T00:22:50.957Z,102538.16
2023-05-18T00:25:36.382Z,102521.34
2023-05-18T00:28:21.571Z,102540.38
2023-05-18T00:31:07.266Z,102533.41
2023-05-18T00:33:52.448Z,102535.22
2023-05-18T00:36:37.908Z,102532.88
2023-05-18T00:39:23.234Z,102526.31
2023-05-18T00:42:08.190Z,102513.19
2023-05-18T00:44:53.225Z,102531.34
2023-05-18T00:47:38.249Z,102528.06
2023-05-18T00:50:23.322Z,102515.91
2023-05-18T00:53:10.590Z,102526.13
2023-05-18T00:55:55.601Z,102528.06
2023-05-18T00:58:42.018Z,102524.78
2023-05-18T01:01:34.797Z,102527.25
2023-05-18T01:04:21.788Z,102525.75
2023-05-18T01:07:07.713Z,102514.75
2023-05-18T01:09:54.397Z,102521.63
2023-05-18T01:12:53.695Z,102524.13
2023-05-18T01:15:41.814Z,102516.28
2023-05-18T01:18:34.088Z,102510.34
2023-05-18T01:21:25.444Z,102512.16
2023-05-18T01:24:38.715Z,102487.50
2023-05-18T01:27:25.651Z,102511.66
2023-05-18T01:30:11.098Z,102511.47
2023-05-18T01:32:56.128Z,102525.47
2023-05-18T01:35:50.088Z,102525.63
2023-05-18T01:38:36.469Z,102523.97
2023-05-18T01:41:27.022Z,102517.03
2023-05-18T01:44:26.891Z,102529.16
2023-05-18T01:47:16.551Z,102522.34
2023-05-18T01:50:14.960Z,102515.19
2023-05-18T01:53:12.740Z,102528.25
2023-05-18T01:55:59.313Z,102527.38
2023-05-18T01:58:45.140Z,102529.75
2023-05-18T02:01:30.520Z,102526.16
2023-05-18T02:04:16.166Z,102540.81
2023-05-18T02:07:01.457Z,102536.81
2023-05-18T02:09:46.630Z,102538.78
2023-05-18T02:12:31.956Z,102535.44
2023-05-18T02:15:17.280Z,102527.19
2023-05-18T02:18:02.888Z,102526.97
2023-05-18T02:20:49.205Z,102529.72
2023-05-18T02:23:34.448Z,102533.28
2023-05-18T02:26:20.896Z,102531.50
2023-05-18T02:29:14.293Z,102539.09
2023-05-18T02:31:59.592Z,102536.44
2023-05-18T02:34:46.353Z,102523.50
2023-05-18T02:37:34.349Z,102523.63
2023-05-18T02:40:19.332Z,102535.59
2023-05-18T02:43:04.588Z,102536.66
2023-05-18T02:45:49.555Z,102544.44
2023-05-18T02:48:34.448Z,102540.03
2023-05-18T02:51:19.412Z,102539.94
2023-05-18T02:54:04.395Z,102540.50
2023-05-18T02:56:50.452Z,102539.31
2023-05-18T02:59:35.262Z,102530.09
2023-05-18T03:02:22.866Z,102531.06
2023-05-18T03:05:08.501Z,102529.50
2023-05-18T03:07:54.347Z,102545.22
2023-05-18T03:10:39.361Z,102535.75
2023-05-18T03:13:25.461Z,102517.03
2023-05-18T03:16:10.491Z,102531.66
2023-05-18T03:18:58.819Z,102525.56
2023-05-18T03:21:44.198Z,102525.66
2023-05-18T03:24:30.281Z,102531.88
2023-05-18T03:27:16.445Z,102502.72
2023-05-18T03:30:01.325Z,102525.31
2023-05-18T03:32:49.329Z,102520.91
2023-05-18T03:35:34.560Z,102520.13
2023-05-18T03:38:19.831Z,102514.16
2023-05-18T03:41:05.311Z,102516.78
2023-05-18T03:43:50.857Z,102513.41
2023-05-18T03:46:36.511Z,102520.28
2023-05-18T03:49:21.793Z,102503.13
2023-05-18T03:52:07.567Z,102512.50
2023-05-18T03:54:52.886Z,102518.63
2023-05-18T03:57:37.872Z,102517.78
2023-05-18T04:00:23.234Z,102515.16
2023-05-18T04:03:12.755Z,102513.59
2023-05-18T04:05:58.054Z,102508.66
2023-05-18T04:08:43.337Z,102515.69
2023-05-18T04:11:28.373Z,102509.53
2023-05-18T04:14:14.143Z,102507.84
2023-05-18T04:17:04.852Z,102502.66
2023-05-18T04:19:50.605Z,102509.53
2023-05-18T04:22:43.222Z,102473.47
2023-05-18T04:25:28.845Z,102507.88
2023-05-18T04:28:14.237Z,102498.63
2023-05-18T04:30:59.826Z,102511.44
2023-05-18T04:33:46.710Z,102502.88
2023-05-18T04:36:32.068Z,102502.44
2023-05-18T04:39:18.180Z,102513.84
2023-05-18T04:42:04.524Z,102518.16
2023-05-18T04:44:52.184Z,102513.16
2023-05-18T04:47:38.617Z,102522.72
2023-05-18T04:50:23.890Z,102501.41
2023-05-18T04:53:12.197Z,102513.63
2023-05-18T04:55:57.416Z,102526.66
2023-05-18T04:58:45.909Z,102526.72
2023-05-18T05:01:31.383Z,102519.81
2023-05-18T05:04:16.700Z,102519.81
2023-05-18T05:07:01.735Z,102519.81
2023-05-18T05:09:46.610Z,102527.59
2023-05-18T05:12:31.753Z,102527.34
2023-05-18T05:15:17.697Z,102516.88
2023-05-18T05:18:02.828Z,102532.25
2023-05-18T05:20:50.501Z,102531.28
2023-05-18T05:23:35.822Z,102532.16
2023-05-18T05:26:23.959Z,102525.75
2023-05-18T05:29:08.797Z,102522.06
2023-05-18T05:31:53.849Z,102516.25
2023-05-18T05:34:40.084Z,102525.31
2023-05-18T05:37:25.612Z,102529.31
2023-05-18T05:40:11.071Z,102539.19
2023-05-18T05:42:56.108Z,102534.56
2023-05-18T05:45:42.852Z,102551.25
2023-05-18T05:48:27.847Z,102537.59
2023-05-18T05:51:13.122Z,102544.34
2023-05-18T05:53:58.301Z,102544.00
2023-05-18T05:56:43.440Z,102543.84
2023-05-18T05:59:28.689Z,102538.38
2023-05-18T06:02:13.684Z,102541.75
2023-05-18T06:04:59.026Z,102534.69
2023-05-18T06:07:43.995Z,102553.63
2023-05-18T06:10:28.865Z,102564.41
2023-05-18T06:13:14.016Z,102563.94
2023-05-18T06:15:59.183Z,102572.09
2023-05-18T06:18:44.468Z,102571.50
2023-05-18T06:21:30.330Z,102570.31
2023-05-18T06:24:15.956Z,102574.31
2023-05-18T06:27:01.333Z,102571.50
2023-05-18T06:29:46.411Z,102572.19
2023-05-18T06:32:31.708Z,102583.94
2023-05-18T06:35:17.119Z,102546.44
2023-05-18T06:38:02.280Z,102569.13
2023-05-18T06:40:47.330Z,102571.47
2023-05-18T06:43:33.247Z,102569.53
2023-05-18T06:46:21.040Z,102566.44
2023-05-18T06:49:06.956Z,102570.50
2023-05-18T06:51:52.159Z,102551.28
2023-05-18T06:54:37.215Z,102562.13
2023-05-18T06:57:22.148Z,102561.47
2023-05-18T07:00:08.951Z,102562.88
2023-05-18T07:02:54.223Z,102567.50
2023-05-18T07:05:39.803Z,102579.91
2023-05-18T07:08:25.529Z,102547.69
2023-05-18T07:11:10.811Z,102567.22
2023-05-18T07:13:55.730Z,102578.22
2023-05-18T07:16:41.335Z,102571.16
2023-05-18T07:19:26.437Z,102584.28
2023-05-18T07:22:11.859Z,102577.03
2023-05-18T07:24:58.515Z,102584.63
2023-05-18T07:27:43.789Z,102565.75
2023-05-18T07:30:31.125Z,102577.84
2023-05-18T07:33:16.437Z,102577.75
2023-05-18T07:36:01.956Z,102583.06
2023-05-18T07:38:47.462Z,102596.56
2023-05-18T07:41:32.636Z,102582.72
2023-05-18T07:44:17.612Z,102583.13
2023-05-18T07:47:02.664Z,102594.84
2023-05-18T07:49:48.319Z,102602.34
2023-05-18T07:52:33.360Z,102608.41
2023-05-18T07:55:18.759Z,102598.38
2023-05-18T07:58:03.827Z,102600.47
2023-05-18T08:00:48.930Z,102597.63
2023-05-18T08:03:34.264Z,102594.66
2023-05-18T08:06:20.503Z,102600.53
2023-05-18T08:09:06.583Z,102600.03
2023-05-18T08:11:52.309Z,102599.56
2023-05-18T08:14:37.266Z,102601.84
2023-05-18T08:17:22.498Z,102602.69
2023-05-18T08:20:08.777Z,102598.28
2023-05-18T08:22:54.055Z,102595.81
2023-05-18T08:25:38.925Z,102600.06
2023-05-18T08:28:23.900Z,102591.75
2023-05-18T08:31:09.012Z,102571.25
2023-05-18T08:33:53.802Z,102595.81
2023-05-18T08:36:38.775Z,102588.72
2023-05-18T08:39:23.658Z,102591.72
2023-05-18T08:42:20.927Z,102582.03
2023-05-18T08:45:13.150Z,102582.84
2023-05-18T08:48:00.960Z,102581.66
2023-05-18T08:50:47.324Z,102582.22
2023-05-18T08:53:33.771Z,102586.47
2023-05-18T08:56:23.854Z,102579.97
2023-05-18T08:59:10.769Z,102578.06
2023-05-18T09:01:56.896Z,102567.44
2023-05-18T09:04:44.930Z,102569.13
2023-05-18T09:07:31.567Z,102565.56
2023-05-18T09:10:17.331Z,102558.66
2023-05-18T09:13:05.269Z,102569.00
2023-05-18T09:15:51.423Z,102569.00
2023-05-18T09:18:36.755Z,102563.66
2023-05-18T09:21:21.870Z,102552.03
2023-05-18T09:24:07.540Z,102555.53
2023-05-18T09:26:52.897Z,102546.97
2023-05-18T09:29:51.856Z,102539.91
2023-05-18T09:32:37.302Z,102556.78
2023-05-18T09:35:25.013Z,102555.16
2023-05-18T09:38:09.895Z,102549.88
2023-05-18T09:40:54.831Z,102559.84
2023-05-18T09:43:40.799Z,102552.59
2023-05-18T09:46:32.011Z,102542.19
2023-05-18T09:49:21.757Z,102553.34
2023-05-18T09:52:09.784Z,102546.13
2023-05-18T09:55:00.208Z,102551.44
2023-05-18T09:57:50.708Z,102549.66
2023-05-18T10:00:44.428Z,102545.09
2023-05-18T10:03:37.810Z,102559.94
2023-05-18T10:06:27.324Z,102541.47
2023-05-18T10:09:16.558Z,102547.09
2023-05-18T10:12:02.396Z,102542.47
2023-05-18T10:14:49.187Z,102547.41
2023-05-18T10:17:34.180Z,102541.78
2023-05-18T10:20:32.043Z,102533.66
2023-05-18T10:23:19.643Z,102542.13
2023-05-18T10:26:07.237Z,102548.97
2023-05-18T10:28:55.719Z,102546.13
2023-05-18T10:31:41.749Z,102547.63
2023-05-18T10:34:27.612Z,102543.72
2023-05-18T10:37:14.382Z,102544.16
2023-05-18T10:40:01.577Z,102543.72
2023-05-18T10:42:48.188Z,102537.59
2023-05-18T10:45:34.672Z,102543.28
2023-05-18T10:48:20.322Z,102544.28
2023-05-18T10:51:07.975Z,102543.91
2023-05-18T10:53:55.824Z,102538.28
2023-05-18T10:56:44.725Z,102538.84
2023-05-18T10:59:29.821Z,102544.03
2023-05-18T11:02:17.708Z,102539.63
2023-05-18T11:05:06.387Z,102515.50
2023-05-18T11:07:59.089Z,102541.94
2023-05-18T11:10:47.275Z,102541.69
2023-05-18T11:13:34.588Z,102533.16
2023-05-18T11:16:20.993Z,102547.38
2023-05-18T11:19:07.569Z,102536.38
2023-05-18T11:21:53.806Z,102537.38
2023-05-18T11:24:41.124Z,102530.81
2023-05-18T11:27:26.297Z,102543.91
2023-05-18T11:30:37.805Z,102531.28
2023-05-18T11:33:26.884Z,102529.78
2023-05-18T11:36:14.472Z,102528.53
2023-05-18T11:39:11.309Z,102531.38
2023-05-18T11:42:06.832Z,102536.81
2023-05-18T11:44:54.291Z,102530.63
2023-05-18T11:47:42.974Z,102528.38
2023-05-18T11:50:30.856Z,102523.41
2023-05-18T11:53:19.793Z,102527.84
2023-05-18T11:56:05.148Z,102524.84
2023-05-18T11:59:13.662Z,102520.22
2023-05-18T12:02:02.406Z,102522.88
2023-05-18T12:05:00.238Z,102512.38
2023-05-18T12:07:52.587Z,102514.91
2023-05-18T12:10:37.751Z,102502.06
2023-05-18T12:13:23.187Z,102506.25
2023-05-18T12:16:08.919Z,102516.88
2023-05-18T12:18:54.001Z,102509.97
2023-05-18T12:21:39.048Z,102510.84
2023-05-18T12:24:24.027Z,102511.13
2023-05-18T12:27:12.118Z,102511.84
2023-05-18T12:29:57.457Z,102494.09
2023-05-18T12:32:51.663Z,102487.63
2023-05-18T12:35:37.057Z,102473.56
2023-05-18T12:38:26.132Z,102506.63
2023-05-18T12:41:22.544Z,102507.81
2023-05-18T12:44:07.638Z,102496.03
2023-05-18T12:46:53.974Z,102512.03
2023-05-18T12:49:41.493Z,102502.47
2023-05-18T12:52:26.535Z,102511.13
2023-05-18T12:55:17.952Z,102497.81
2023-05-18T12:58:17.867Z,102496.50
2023-05-18T13:01:10.905Z,102493.72
2023-05-18T13:03:58.217Z,102489.06
2023-05-18T13:06:43.857Z,102486.03
2023-05-18T13:09:29.060Z,102490.53
2023-05-18T13:12:14.144Z,102492.84
2023-05-18T13:14:59.153Z,102486.78
2023-05-18T13:17:53.470Z,102479.47
2023-05-18T13:20:50.874Z,102485.63
2023-05-18T13:23:36.208Z,102479.81
2023-05-18T13:26:22.546Z,102479.66
2023-05-18T13:29:08.630Z,102482.41
2023-05-18T13:31:53.927Z,102473.84
2023-05-18T13:34:38.922Z,102466.88
2023-05-18T13:37:24.794Z,102456.16
2023-05-18T13:40:10.064Z,102472.97
2023-05-18T13:42:55.072Z,102466.31
2023-05-18T13:45:40.213Z,102459.41
2023-05-18T13:48:27.729Z,102455.09
2023-05-18T13:51:12.979Z,102467.47
2023-05-18T13:53:58.217Z,102464.25
2023-05-18T13:56:43.488Z,102458.63
2023-05-18T13:59:29.071Z,102463.19
2023-05-18T14:02:14.448Z,102459.88
2023-05-18T14:04:59.831Z,102457.63
2023-05-18T14:07:45.146Z,102451.16
2023-05-18T14:10:30.690Z,102462.78
2023-05-18T14:13:16.054Z,102454.88
2023-05-18T14:16:01.538Z,102432.47
2023-05-18T14:18:46.453Z,102447.34
2023-05-18T14:21:31.543Z,102451.75
2023-05-18T14:24:16.935Z,102452.81
2023-05-18T14:27:01.853Z,102441.69
2023-05-18T14:29:47.035Z,102441.50
2023-05-18T14:32:32.378Z,102453.19
2023-05-18T14:35:17.451Z,102437.06
2023-05-18T14:38:02.971Z,102445.47
2023-05-18T14:40:48.479Z,102446.53
2023-05-18T14:43:33.324Z,102437.34
2023-05-18T14:46:18.401Z,102433.78
2023-05-18T14:49:03.764Z,102435.81
2023-05-18T14:51:49.149Z,102429.91
2023-05-18T14:54:34.302Z,102418.00
2023-05-18T14:57:19.842Z,102436.41
2023-05-18T15:00:05.287Z,102434.31
2023-05-18T15:02:50.316Z,102426.81
2023-05-18T15:05:36.144Z,102429.16
2023-05-18T15:08:22.235Z,102410.03
2023-05-18T15:11:07.481Z,102424.03
2023-05-18T15:13:52.357Z,102419.25
2023-05-18T15:16:38.782Z,102418.00
2023-05-18T15:19:24.116Z,102415.09
2023-05-18T15:22:09.772Z,102415.56
2023-05-18T15:24:55.192Z,102393.22
2023-05-18T15:27:40.283Z,102415.66
2023-05-18T15:30:25.559Z,102402.72
2023-05-18T15:33:10.809Z,102383.47
2023-05-18T15:35:56.245Z,102384.66
2023-05-18T15:38:41.435Z,102404.66
2023-05-18T15:41:32.859Z,102408.13
2023-05-18T15:44:18.193Z,102395.31
2023-05-18T15:47:04.575Z,102405.78
2023-05-18T15:49:49.470Z,102409.31
2023-05-18T15:52:34.765Z,102406.41
2023-05-18T15:55:20.195Z,102408.22
2023-05-18T15:58:05.495Z,102403.41
2023-05-18T16:00:50.707Z,102406.84
2023-05-18T16:03:35.819Z,102402.06
2023-05-18T16:06:21.220Z,102402.13
2023-05-18T16:09:06.432Z,102406.78
2023-05-18T16:11:52.424Z,102401.41
2023-05-18T16:14:37.587Z,102401.31
2023-05-18T16:17:22.836Z,102406.34
2023-05-18T16:20:08.369Z,102398.09
2023-05-18T16:22:53.150Z,102393.72
2023-05-18T16:25:38.129Z,102392.28
2023-05-18T16:28:23.194Z,102397.81
2023-05-18T16:31:10.929Z,102390.19
2023-05-18T16:33:56.789Z,102386.50
2023-05-18T16:36:41.622Z,102399.25
2023-05-18T16:39:27.332Z,102394.31
2023-05-18T16:42:12.397Z,102391.75
2023-05-18T16:44:57.340Z,102382.56
2023-05-18T16:47:42.568Z,102392.91
2023-05-18T16:50:28.046Z,102389.81
2023-05-18T16:53:13.235Z,102392.81
2023-05-18T16:55:58.316Z,102398.16
2023-05-18T16:58:43.538Z,102383.34
2023-05-18T17:01:30.751Z,102389.41
2023-05-18T17:04:16.261Z,102382.19
2023-05-18T17:07:01.744Z,102391.03
2023-05-18T17:09:46.641Z,102391.03
2023-05-18T17:12:32.326Z,102397.31
2023-05-18T17:15:17.684Z,102381.13
2023-05-18T17:18:02.988Z,102392.50
2023-05-18T17:20:48.555Z,102389.94
2023-05-18T17:23:33.469Z,102368.84
2023-05-18T17:26:18.368Z,102382.59
2023-05-18T17:29:03.760Z,102370.50
2023-05-18T17:31:49.132Z,102365.56
2023-05-18T17:34:34.200Z,102388.47
2023-05-18T17:37:19.463Z,102373.09
2023-05-18T17:40:05.900Z,102378.88
2023-05-18T17:42:50.997Z,102383.66
2023-05-18T17:45:36.217Z,102365.47
2023-05-18T17:48:21.079Z,102384.03
2023-05-18T17:51:07.147Z,102382.34
2023-05-18T17:53:52.399Z,102385.09
2023-05-18T17:56:37.775Z,102389.72
2023-05-18T17:59:22.998Z,102391.69
2023-05-18T18:02:08.016Z,102389.44
2023-05-18T18:04:52.921Z,102394.53
2023-05-18T18:07:39.027Z,102378.28
2023-05-18T18:10:24.656Z,102387.16
2023-05-18T18:13:09.692Z,102372.78
2023-05-18T18:15:54.676Z,102391.63
2023-05-18T18:18:39.930Z,102380.63
2023-05-18T18:21:25.116Z,102386.16
2023-05-18T18:24:10.172Z,102380.41
2023-05-18T18:26:55.779Z,102386.56
2023-05-18T18:29:41.005Z,102390.09
2023-05-18T18:32:26.148Z,102392.16
2023-05-18T18:35:11.385Z,102384.19
2023-05-18T18:37:57.359Z,102382.50
2023-05-18T18:40:42.354Z,102393.91
2023-05-18T18:43:28.248Z,102405.25
2023-05-18T18:46:13.306Z,102401.94
2023-05-18T18:48:58.675Z,102396.22
2023-05-18T18:51:43.815Z,102391.81
2023-05-18T18:54:29.032Z,102407.31
2023-05-18T18:57:14.661Z,102400.81
2023-05-18T19:00:00.809Z,102420.91
2023-05-18T19:02:46.023Z,102418.59
2023-05-18T19:05:31.811Z,102394.59
2023-05-18T19:08:17.220Z,102397.44
2023-05-18T19:11:02.536Z,102420.53
2023-05-18T19:13:47.901Z,102409.72
2023-05-18T19:16:33.320Z,102423.78
2023-05-18T19:19:19.110Z,102414.44
2023-05-18T19:22:05.294Z,102425.50
2023-05-18T19:24:50.357Z,102433.78
2023-05-18T19:27:35.951Z,102448.22
2023-05-18T19:30:22.401Z,102439.19
2023-05-18T19:33:07.979Z,102441.91
2023-05-18T19:35:54.388Z,102442.19
2023-05-18T19:38:39.667Z,102438.78
2023-05-18T19:41:26.764Z,102438.25
2023-05-18T19:44:11.816Z,102445.28
2023-05-18T19:47:10.291Z,102453.41
2023-05-18T19:49:57.892Z,102444.72
2023-05-18T19:52:43.367Z,102455.47
2023-05-18T19:55:28.783Z,102456.75
2023-05-18T19:58:13.806Z,102464.56
2023-05-18T20:00:58.974Z,102466.78
2023-05-18T20:03:48.017Z,102462.03
2023-05-18T20:06:33.886Z,102467.75
2023-05-18T20:09:20.073Z,102471.59
2023-05-18T20:12:07.134Z,102454.19
2023-05-18T20:14:52.354Z,102467.47
2023-05-18T20:17:37.705Z,102462.44
2023-05-18T20:20:22.799Z,102477.25
2023-05-18T20:23:10.585Z,102470.97
2023-05-18T20:25:56.256Z,102476.06
2023-05-18T20:28:41.411Z,102469.25
2023-05-18T20:31:27.103Z,102459.13
2023-05-18T20:34:12.447Z,102477.00
2023-05-18T20:36:57.522Z,102457.41
2023-05-18T20:39:50.202Z,102477.41
2023-05-18T20:42:41.626Z,102466.19
2023-05-18T20:45:31.308Z,102481.38
2023-05-18T20:48:24.429Z,102485.09
2023-05-18T20:51:15.188Z,102482.91
2023-05-18T20:54:00.516Z,102481.34
2023-05-18T20:56:45.752Z,102488.34
2023-05-18T20:59:31.246Z,102493.44
2023-05-18T21:02:16.957Z,102485.09
2023-05-18T21:05:04.345Z,102481.84
2023-05-18T21:07:50.365Z,102484.78
2023-05-18T21:10:35.559Z,102486.97
2023-05-18T21:13:21.406Z,102496.66
2023-05-18T21:16:08.371Z,102496.28
2023-05-18T21:18:53.718Z,102497.97
2023-05-18T21:21:39.194Z,102510.50
2023-05-18T21:24:24.357Z,102492.78
2023-05-18T21:27:09.313Z,102508.88
2023-05-18T21:29:54.233Z,102507.03
2023-05-18T21:32:40.615Z,102501.03
2023-05-18T21:35:26.357Z,102517.94
2023-05-18T21:38:11.699Z,102520.88
2023-05-18T21:40:57.567Z,102514.22
2023-05-18T21:43:43.353Z,102491.06
2023-05-18T21:46:28.574Z,102514.38
2023-05-18T21:49:13.363Z,102508.78
2023-05-18T21:51:58.380Z,102513.41
2023-05-18T21:54:43.698Z,102517.88
2023-05-18T21:57:28.765Z,102511.06
2023-05-18T22:00:15.624Z,102508.38
2023-05-18T22:03:00.731Z,102502.78
2023-05-18T22:05:45.999Z,102512.94
2023-05-18T22:08:31.161Z,102499.53
2023-05-18T22:11:16.347Z,102497.13
2023-05-18T22:14:01.750Z,102510.91
2023-05-18T22:16:46.982Z,102508.63
2023-05-18T22:19:32.278Z,102507.19
2023-05-18T22:22:29.168Z,102509.44
2023-05-18T22:25:16.364Z,102490.91
2023-05-18T22:28:01.590Z,102504.13
2023-05-18T22:30:48.080Z,102505.31
2023-05-18T22:33:33.101Z,102505.31
2023-05-18T22:36:21.432Z,102509.63
2023-05-18T22:39:06.913Z,102506.34
2023-05-18T22:41:52.091Z,102510.53
2023-05-18T22:44:36.967Z,102510.00
2023-05-18T22:47:23.661Z,102506.78
2023-05-18T22:50:09.229Z,102482.31
2023-05-18T22:52:54.528Z,102509.56
2023-05-18T22:55:39.488Z,102506.28
2023-05-18T22:58:24.912Z,102508.78
2023-05-18T23:01:10.044Z,102514.91
2023-05-18T23:03:55.082Z,102509.13
2023-05-18T23:06:41.281Z,102505.00
2023-05-18T23:09:27.143Z,102510.91
2023-05-18T23:12:12.429Z,102515.69
2023-05-18T23:14:58.326Z,102511.63
2023-05-18T23:17:43.540Z,102489.63
2023-05-18T23:20:28.965Z,102501.75
2023-05-18T23:23:14.141Z,102498.47
2023-05-18T23:25:59.662Z,102493.31
2023-05-18T23:28:44.895Z,102487.19
2023-05-18T23:31:30.170Z,102478.66
2023-05-18T23:34:15.366Z,102490.00
2023-05-18T23:37:04.067Z,102496.34
2023-05-18T23:39:51.808Z,102476.25
2023-05-18T23:42:37.207Z,102495.84
2023-05-18T23:45:23.484Z,102498.34
2023-05-18T23:48:09.535Z,102482.28
2023-05-18T23:51:00.364Z,102490.13
2023-05-18T23:53:46.715Z,102492.69
2023-05-18T23:56:33.202Z,102492.94
2023-05-18T23:59:18.159Z,102488.94
